sensor_id;sensor_type;location;lat;lon;timestamp;pressure;altitude;pressure_sealevel;temperature;humidity
85186;BME280;75557;51.048;-0.424;2024-01-27T00:02:09;103021.20;;;16.75;15.82
85186;BME280;75557;51.048;-0.424;2024-01-27T00:04:35;103028.17;;;16.78;15.86
85186;BME280;75557;51.048;-0.424;2024-01-27T00:07:00;103033.28;;;16.47;15.94
85186;BME280;75557;51.048;-0.424;2024-01-27T00:09:26;103036.06;;;16.76;15.80
85186;BME280;75557;51.048;-0.424;2024-01-27T00:11:51;103031.94;;;16.56;16.05
85186;BME280;75557;51.048;-0.424;2024-01-27T00:14:17;103026.98;;;16.23;16.14
85186;BME280;75557;51.048;-0.424;2024-01-27T00:16:42;103024.01;;;16.43;16.08
85186;BME280;75557;51.048;-0.424;2024-01-27T00:19:07;103020.11;;;16.50;16.04
85186;BME280;75557;51.048;-0.424;2024-01-27T00:21:33;103015.64;;;16.06;16.07
85186;BME280;75557;51.048;-0.424;2024-01-27T00:23:58;103017.51;;;16.24;16.23
85186;BME280;75557;51.048;-0.424;2024-01-27T00:26:24;103020.03;;;16.08;16.09
85186;BME280;75557;51.048;-0.424;2024-01-27T00:28:50;103019.43;;;15.99;16.16
85186;BME280;75557;51.048;-0.424;2024-01-27T00:31:15;103018.38;;;16.40;16.22
85186;BME280;75557;51.048;-0.424;2024-01-27T00:33:41;103019.04;;;15.94;16.44
85186;BME280;75557;51.048;-0.424;2024-01-27T00:36:06;103014.35;;;15.89;16.32
85186;BME280;75557;51.048;-0.424;2024-01-27T00:38:32;103009.66;;;15.97;16.33
85186;BME280;75557;51.048;-0.424;2024-01-27T00:40:57;103007.88;;;15.64;16.45
85186;BME280;75557;51.048;-0.424;2024-01-27T00:43:23;103010.21;;;15.89;16.40
85186;BME280;75557;51.048;-0.424;2024-01-27T00:45:48;103007.64;;;15.80;16.45
85186;BME280;75557;51.048;-0.424;2024-01-27T00:48:14;103003.50;;;15.53;16.38
85186;BME280;75557;51.048;-0.424;2024-01-27T00:50:39;102998.77;;;15.33;16.45
85186;BME280;75557;51.048;-0.424;2024-01-27T00:53:06;102995.64;;;15.79;16.42
85186;BME280;75557;51.048;-0.424;2024-01-27T00:55:31;102995.43;;;15.46;16.44
85186;BME280;75557;51.048;-0.424;2024-01-27T00:57:56;102988.15;;;15.20;16.61
85186;BME280;75557;51.048;-0.424;2024-01-27T01:00:22;102982.84;;;15.28;16.51
85186;BME280;75557;51.048;-0.424;2024-01-27T01:02:47;102976.37;;;15.57;16.66
85186;BME280;75557;51.048;-0.424;2024-01-27T01:05:13;102969.71;;;15.40;16.62
85186;BME280;75557;51.048;-0.424;2024-01-27T01:07:38;102973.30;;;15.74;16.49
85186;BME280;75557;51.048;-0.424;2024-01-27T01:10:05;102977.60;;;15.72;16.40
85186;BME280;75557;51.048;-0.424;2024-01-27T01:12:30;102981.70;;;15.73;16.39
85186;BME280;75557;51.048;-0.424;2024-01-27T01:14:55;102977.75;;;15.97;16.29
85186;BME280;75557;51.048;-0.424;2024-01-27T01:17:21;102978.02;;;15.87;16.19
85186;BME280;75557;51.048;-0.424;2024-01-27T01:19:46;102979.24;;;15.67;16.35
85186;BME280;75557;51.048;-0.424;2024-01-27T01:22:12;102977.32;;;15.62;16.38
85186;BME280;75557;51.048;-0.424;2024-01-27T01:24:37;102974.32;;;15.39;16.47
85186;BME280;75557;51.048;-0.424;2024-01-27T01:27:03;102976.41;;;15.49;16.52
85186;BME280;75557;51.048;-0.424;2024-01-27T01:29:28;102979.36;;;15.40;16.56
85186;BME280;75557;51.048;-0.424;2024-01-27T01:31:54;102976.33;;;15.34;16.66
85186;BME280;75557;51.048;-0.424;2024-01-27T01:34:19;102967.11;;;15.76;16.41
85186;BME280;75557;51.048;-0.424;2024-01-27T01:36:45;102963.71;;;15.68;16.50
85186;BME280;75557;51.048;-0.424;2024-01-27T01:39:11;102963.75;;;15.54;16.51
85186;BME280;75557;51.048;-0.424;2024-01-27T01:41:36;102967.46;;;15.66;16.43
85186;BME280;75557;51.048;-0.424;2024-01-27T01:44:02;102973.31;;;15.19;16.54
85186;BME280;75557;51.048;-0.424;2024-01-27T01:46:27;102974.14;;;15.53;16.47
85186;BME280;75557;51.048;-0.424;2024-01-27T01:48:53;102973.01;;;15.23;16.48
85186;BME280;75557;51.048;-0.424;2024-01-27T01:51:18;102971.70;;;15.32;16.51
85186;BME280;75557;51.048;-0.424;2024-01-27T01:53:45;102969.84;;;15.25;16.55
85186;BME280;75557;51.048;-0.424;2024-01-27T01:56:10;102969.56;;;15.34;16.48
85186;BME280;75557;51.048;-0.424;2024-01-27T01:58:35;102963.62;;;15.28;16.49
85186;BME280;75557;51.048;-0.424;2024-01-27T02:01:01;102963.75;;;15.30;16.50
85186;BME280;75557;51.048;-0.424;2024-01-27T02:03:26;102968.14;;;15.69;16.29
85186;BME280;75557;51.048;-0.424;2024-01-27T02:05:52;102978.19;;;15.47;16.37
85186;BME280;75557;51.048;-0.424;2024-01-27T02:08:17;102983.76;;;15.25;16.48
85186;BME280;75557;51.048;-0.424;2024-01-27T02:10:43;102983.63;;;15.37;16.37
85186;BME280;75557;51.048;-0.424;2024-01-27T02:13:16;102978.37;;;15.59;16.30
85186;BME280;75557;51.048;-0.424;2024-01-27T02:15:34;102968.25;;;15.40;16.41
85186;BME280;75557;51.048;-0.424;2024-01-27T02:18:00;102955.68;;;15.44;16.37
85186;BME280;75557;51.048;-0.424;2024-01-27T02:20:25;102952.29;;;15.73;16.18
85186;BME280;75557;51.048;-0.424;2024-01-27T02:22:51;102974.90;;;15.45;16.27
85186;BME280;75557;51.048;-0.424;2024-01-27T02:25:16;102990.25;;;15.38;16.30
85186;BME280;75557;51.048;-0.424;2024-01-27T02:27:42;102984.35;;;15.80;16.14
85186;BME280;75557;51.048;-0.424;2024-01-27T02:30:08;102981.09;;;15.81;16.18
85186;BME280;75557;51.048;-0.424;2024-01-27T02:32:33;102980.95;;;15.71;16.32
85186;BME280;75557;51.048;-0.424;2024-01-27T02:34:59;102977.69;;;15.64;16.49
85186;BME280;75557;51.048;-0.424;2024-01-27T02:37:24;102971.81;;;15.72;16.31
85186;BME280;75557;51.048;-0.424;2024-01-27T02:39:50;102973.16;;;15.63;16.32
85186;BME280;75557;51.048;-0.424;2024-01-27T02:42:15;102976.75;;;15.43;16.36
85186;BME280;75557;51.048;-0.424;2024-01-27T02:44:41;102986.11;;;15.45;16.40
85186;BME280;75557;51.048;-0.424;2024-01-27T02:47:07;102985.09;;;15.60;16.24
85186;BME280;75557;51.048;-0.424;2024-01-27T02:49:32;102985.65;;;15.52;16.47
85186;BME280;75557;51.048;-0.424;2024-01-27T02:51:58;102981.93;;;15.18;16.46
85186;BME280;75557;51.048;-0.424;2024-01-27T02:54:23;102980.66;;;15.47;16.29
85186;BME280;75557;51.048;-0.424;2024-01-27T02:56:49;102970.64;;;15.18;16.26
85186;BME280;75557;51.048;-0.424;2024-01-27T02:59:15;102963.78;;;15.27;16.37
85186;BME280;75557;51.048;-0.424;2024-01-27T03:01:40;102966.42;;;15.52;16.26
85186;BME280;75557;51.048;-0.424;2024-01-27T03:04:05;102964.06;;;15.08;16.38
85186;BME280;75557;51.048;-0.424;2024-01-27T03:06:31;102961.62;;;15.27;16.32
85186;BME280;75557;51.048;-0.424;2024-01-27T03:08:56;102971.89;;;15.19;16.30
85186;BME280;75557;51.048;-0.424;2024-01-27T03:11:22;102976.51;;;15.60;16.22
85186;BME280;75557;51.048;-0.424;2024-01-27T03:13:48;102967.66;;;15.51;16.16
85186;BME280;75557;51.048;-0.424;2024-01-27T03:16:13;102957.69;;;15.25;16.32
85186;BME280;75557;51.048;-0.424;2024-01-27T03:18:39;102956.72;;;15.42;16.24
85186;BME280;75557;51.048;-0.424;2024-01-27T03:21:06;102962.74;;;15.47;16.21
85186;BME280;75557;51.048;-0.424;2024-01-27T03:23:30;102965.93;;;15.24;16.28
85186;BME280;75557;51.048;-0.424;2024-01-27T03:25:55;102971.69;;;14.96;16.35
85186;BME280;75557;51.048;-0.424;2024-01-27T03:28:21;102962.98;;;15.53;16.26
85186;BME280;75557;51.048;-0.424;2024-01-27T03:30:46;102962.67;;;15.02;16.35
85186;BME280;75557;51.048;-0.424;2024-01-27T03:33:12;102958.34;;;14.88;16.45
85186;BME280;75557;51.048;-0.424;2024-01-27T03:35:37;102963.25;;;15.31;16.19
85186;BME280;75557;51.048;-0.424;2024-01-27T03:38:03;102968.78;;;15.37;16.34
85186;BME280;75557;51.048;-0.424;2024-01-27T03:40:28;102962.81;;;15.44;16.17
85186;BME280;75557;51.048;-0.424;2024-01-27T03:42:54;102960.83;;;15.26;16.28
85186;BME280;75557;51.048;-0.424;2024-01-27T03:45:20;102956.84;;;15.20;16.26
85186;BME280;75557;51.048;-0.424;2024-01-27T03:47:45;102956.98;;;15.20;16.37
85186;BME280;75557;51.048;-0.424;2024-01-27T03:50:11;102958.00;;;15.08;16.49
85186;BME280;75557;51.048;-0.424;2024-01-27T03:52:36;102959.64;;;15.37;16.34
85186;BME280;75557;51.048;-0.424;2024-01-27T03:55:02;102959.79;;;15.30;16.39
85186;BME280;75557;51.048;-0.424;2024-01-27T03:57:28;102962.72;;;15.29;16.34
85186;BME280;75557;51.048;-0.424;2024-01-27T03:59:53;102956.94;;;15.42;16.27
85186;BME280;75557;51.048;-0.424;2024-01-27T04:02:19;102948.98;;;15.22;16.34
85186;BME280;75557;51.048;-0.424;2024-01-27T04:04:44;102953.28;;;15.59;16.14
85186;BME280;75557;51.048;-0.424;2024-01-27T04:07:10;102959.88;;;15.35;16.15
85186;BME280;75557;51.048;-0.424;2024-01-27T04:09:35;102958.98;;;15.12;16.31
85186;BME280;75557;51.048;-0.424;2024-01-27T04:12:01;102952.73;;;15.27;16.30
85186;BME280;75557;51.048;-0.424;2024-01-27T04:14:26;102950.22;;;15.13;16.35
85186;BME280;75557;51.048;-0.424;2024-01-27T04:16:52;102949.93;;;15.11;16.27
85186;BME280;75557;51.048;-0.424;2024-01-27T04:19:18;102955.46;;;15.07;16.31
85186;BME280;75557;51.048;-0.424;2024-01-27T04:21:43;102960.86;;;15.06;16.35
85186;BME280;75557;51.048;-0.424;2024-01-27T04:24:09;102957.16;;;15.03;16.31
85186;BME280;75557;51.048;-0.424;2024-01-27T04:26:34;102955.17;;;15.31;16.19
85186;BME280;75557;51.048;-0.424;2024-01-27T04:29:00;102945.23;;;14.94;16.32
85186;BME280;75557;51.048;-0.424;2024-01-27T04:31:25;102941.34;;;14.98;16.30
85186;BME280;75557;51.048;-0.424;2024-01-27T04:33:51;102945.88;;;15.38;16.20
85186;BME280;75557;51.048;-0.424;2024-01-27T04:36:25;102951.79;;;15.58;16.21
85186;BME280;75557;51.048;-0.424;2024-01-27T04:38:43;102955.13;;;15.03;16.24
85186;BME280;75557;51.048;-0.424;2024-01-27T04:41:07;102949.75;;;15.23;16.19
85186;BME280;75557;51.048;-0.424;2024-01-27T04:43:33;102938.67;;;15.21;16.29
85186;BME280;75557;51.048;-0.424;2024-01-27T04:45:59;102931.26;;;15.46;16.14
85186;BME280;75557;51.048;-0.424;2024-01-27T04:48:24;102927.99;;;15.70;15.99
85186;BME280;75557;51.048;-0.424;2024-01-27T04:50:50;102932.90;;;15.51;16.11
85186;BME280;75557;51.048;-0.424;2024-01-27T04:53:16;102942.20;;;15.63;16.07
85186;BME280;75557;51.048;-0.424;2024-01-27T04:55:41;102942.89;;;15.22;16.12
85186;BME280;75557;51.048;-0.424;2024-01-27T04:58:07;102934.54;;;15.32;16.13
85186;BME280;75557;51.048;-0.424;2024-01-27T05:00:32;102936.24;;;15.13;16.11
85186;BME280;75557;51.048;-0.424;2024-01-27T05:02:58;102933.04;;;15.43;16.12
85186;BME280;75557;51.048;-0.424;2024-01-27T05:05:23;102930.25;;;15.50;16.01
85186;BME280;75557;51.048;-0.424;2024-01-27T05:07:49;102929.47;;;15.30;16.21
85186;BME280;75557;51.048;-0.424;2024-01-27T05:10:15;102936.02;;;15.40;16.20
85186;BME280;75557;51.048;-0.424;2024-01-27T05:12:40;102936.04;;;14.91;16.38
85186;BME280;75557;51.048;-0.424;2024-01-27T05:15:06;102928.32;;;15.45;16.14
85186;BME280;75557;51.048;-0.424;2024-01-27T05:17:31;102922.64;;;15.20;16.23
85186;BME280;75557;51.048;-0.424;2024-01-27T05:19:57;102926.29;;;15.10;16.33
85186;BME280;75557;51.048;-0.424;2024-01-27T05:22:22;102927.51;;;14.97;16.31
85186;BME280;75557;51.048;-0.424;2024-01-27T05:24:48;102919.26;;;15.15;16.19
85186;BME280;75557;51.048;-0.424;2024-01-27T05:27:13;102914.18;;;15.14;16.27
85186;BME280;75557;51.048;-0.424;2024-01-27T05:29:39;102911.29;;;15.05;16.45
85186;BME280;75557;51.048;-0.424;2024-01-27T05:32:05;102906.75;;;15.18;16.23
85186;BME280;75557;51.048;-0.424;2024-01-27T05:34:30;102901.03;;;15.15;16.22
85186;BME280;75557;51.048;-0.424;2024-01-27T05:36:55;102895.93;;;15.45;16.13
85186;BME280;75557;51.048;-0.424;2024-01-27T05:39:21;102893.23;;;15.15;16.14
85186;BME280;75557;51.048;-0.424;2024-01-27T05:41:47;102884.38;;;15.08;16.18
85186;BME280;75557;51.048;-0.424;2024-01-27T05:44:12;102883.58;;;14.89;16.28
85186;BME280;75557;51.048;-0.424;2024-01-27T05:46:38;102882.10;;;15.19;16.04
85186;BME280;75557;51.048;-0.424;2024-01-27T05:49:04;102887.09;;;14.90;16.31
85186;BME280;75557;51.048;-0.424;2024-01-27T05:51:29;102883.77;;;15.10;16.21
85186;BME280;75557;51.048;-0.424;2024-01-27T05:53:55;102879.71;;;15.07;16.18
85186;BME280;75557;51.048;-0.424;2024-01-27T05:56:20;102879.50;;;14.97;16.21
85186;BME280;75557;51.048;-0.424;2024-01-27T05:58:45;102881.69;;;15.38;16.28
85186;BME280;75557;51.048;-0.424;2024-01-27T06:01:11;102882.08;;;15.15;16.12
85186;BME280;75557;51.048;-0.424;2024-01-27T06:03:36;102887.16;;;15.62;16.04
85186;BME280;75557;51.048;-0.424;2024-01-27T06:06:02;102891.31;;;15.89;15.78
85186;BME280;75557;51.048;-0.424;2024-01-27T06:08:27;102886.73;;;15.32;16.12
85186;BME280;75557;51.048;-0.424;2024-01-27T06:10:53;102890.42;;;15.20;15.96
85186;BME280;75557;51.048;-0.424;2024-01-27T06:13:19;102902.45;;;15.36;16.01
85186;BME280;75557;51.048;-0.424;2024-01-27T06:15:44;102896.97;;;15.23;16.10
85186;BME280;75557;51.048;-0.424;2024-01-27T06:18:10;102897.02;;;14.99;16.13
85186;BME280;75557;51.048;-0.424;2024-01-27T06:20:35;102908.44;;;15.16;16.06
85186;BME280;75557;51.048;-0.424;2024-01-27T06:23:01;102912.12;;;15.47;15.90
85186;BME280;75557;51.048;-0.424;2024-01-27T06:25:27;102919.83;;;15.08;16.09
85186;BME280;75557;51.048;-0.424;2024-01-27T06:27:52;102933.56;;;14.80;16.20
85186;BME280;75557;51.048;-0.424;2024-01-27T06:30:17;102935.89;;;15.29;16.00
85186;BME280;75557;51.048;-0.424;2024-01-27T06:32:43;102939.17;;;15.67;15.92
85186;BME280;75557;51.048;-0.424;2024-01-27T06:35:08;102932.28;;;15.13;15.97
85186;BME280;75557;51.048;-0.424;2024-01-27T06:37:34;102929.45;;;15.37;15.92
85186;BME280;75557;51.048;-0.424;2024-01-27T06:40:00;102933.09;;;15.61;15.81
85186;BME280;75557;51.048;-0.424;2024-01-27T06:42:25;102934.53;;;15.13;16.09
85186;BME280;75557;51.048;-0.424;2024-01-27T06:44:51;102947.17;;;14.90;16.20
85186;BME280;75557;51.048;-0.424;2024-01-27T06:47:16;102947.10;;;15.01;16.10
85186;BME280;75557;51.048;-0.424;2024-01-27T06:49:42;102938.59;;;15.20;16.05
85186;BME280;75557;51.048;-0.424;2024-01-27T06:52:07;102929.79;;;15.13;16.01
85186;BME280;75557;51.048;-0.424;2024-01-27T06:54:33;102926.45;;;14.97;16.07
85186;BME280;75557;51.048;-0.424;2024-01-27T06:56:59;102916.10;;;14.88;16.09
85186;BME280;75557;51.048;-0.424;2024-01-27T06:59:24;102902.46;;;14.97;16.11
85186;BME280;75557;51.048;-0.424;2024-01-27T07:01:50;102907.74;;;14.77;16.23
85186;BME280;75557;51.048;-0.424;2024-01-27T07:04:15;102910.61;;;14.56;16.38
85186;BME280;75557;51.048;-0.424;2024-01-27T07:06:41;102911.08;;;15.32;16.13
85186;BME280;75557;51.048;-0.424;2024-01-27T07:09:06;102908.38;;;15.19;16.14
85186;BME280;75557;51.048;-0.424;2024-01-27T07:11:32;102903.17;;;14.96;16.17
85186;BME280;75557;51.048;-0.424;2024-01-27T07:13:58;102903.78;;;15.65;15.96
85186;BME280;75557;51.048;-0.424;2024-01-27T07:16:24;102908.14;;;15.80;15.82
85186;BME280;75557;51.048;-0.424;2024-01-27T07:18:49;102926.41;;;15.43;15.95
85186;BME280;75557;51.048;-0.424;2024-01-27T07:21:15;102927.20;;;15.61;15.80
85186;BME280;75557;51.048;-0.424;2024-01-27T07:23:40;102923.75;;;15.37;16.07
85186;BME280;75557;51.048;-0.424;2024-01-27T07:26:08;102918.95;;;15.14;16.03
85186;BME280;75557;51.048;-0.424;2024-01-27T07:28:31;102913.74;;;14.92;16.07
85186;BME280;75557;51.048;-0.424;2024-01-27T07:30:56;102912.98;;;14.71;16.24
85186;BME280;75557;51.048;-0.424;2024-01-27T07:33:22;102920.83;;;14.97;16.00
85186;BME280;75557;51.048;-0.424;2024-01-27T07:35:47;102932.78;;;15.33;15.99
85186;BME280;75557;51.048;-0.424;2024-01-27T07:38:13;102946.31;;;15.00;16.02
85186;BME280;75557;51.048;-0.424;2024-01-27T07:40:38;102941.99;;;14.93;16.06
85186;BME280;75557;51.048;-0.424;2024-01-27T07:43:04;102939.61;;;15.35;16.05
85186;BME280;75557;51.048;-0.424;2024-01-27T07:45:29;102930.80;;;15.02;16.14
85186;BME280;75557;51.048;-0.424;2024-01-27T07:47:55;102931.25;;;15.23;16.05
85186;BME280;75557;51.048;-0.424;2024-01-27T07:50:20;102927.88;;;15.03;16.11
85186;BME280;75557;51.048;-0.424;2024-01-27T07:52:46;102927.07;;;14.89;16.13
85186;BME280;75557;51.048;-0.424;2024-01-27T07:55:11;102921.87;;;15.00;16.14
85186;BME280;75557;51.048;-0.424;2024-01-27T07:57:37;102917.49;;;15.08;16.17
85186;BME280;75557;51.048;-0.424;2024-01-27T08:00:03;102924.60;;;15.06;16.15
85186;BME280;75557;51.048;-0.424;2024-01-27T08:02:28;102927.67;;;14.99;16.19
85186;BME280;75557;51.048;-0.424;2024-01-27T08:04:53;102927.69;;;14.79;16.32
85186;BME280;75557;51.048;-0.424;2024-01-27T08:07:19;102927.64;;;14.94;16.22
85186;BME280;75557;51.048;-0.424;2024-01-27T08:09:45;102927.50;;;14.90;16.27
85186;BME280;75557;51.048;-0.424;2024-01-27T08:12:10;102919.92;;;15.07;16.07
85186;BME280;75557;51.048;-0.424;2024-01-27T08:14:36;102916.37;;;15.30;16.03
85186;BME280;75557;51.048;-0.424;2024-01-27T08:17:01;102921.18;;;15.01;16.17
85186;BME280;75557;51.048;-0.424;2024-01-27T08:19:27;102923.08;;;15.28;16.19
85186;BME280;75557;51.048;-0.424;2024-01-27T08:21:52;102914.80;;;15.35;16.09
85186;BME280;75557;51.048;-0.424;2024-01-27T08:24:18;102911.84;;;15.31;16.00
85186;BME280;75557;51.048;-0.424;2024-01-27T08:26:43;102910.75;;;15.67;15.90
85186;BME280;75557;51.048;-0.424;2024-01-27T08:29:09;102911.94;;;15.47;15.95
85186;BME280;75557;51.048;-0.424;2024-01-27T08:31:35;102910.73;;;15.30;16.08
85186;BME280;75557;51.048;-0.424;2024-01-27T08:34:00;102916.12;;;15.45;16.09
85186;BME280;75557;51.048;-0.424;2024-01-27T08:36:26;102920.48;;;16.08;15.78
85186;BME280;75557;51.048;-0.424;2024-01-27T08:38:51;102912.06;;;15.50;15.59
85186;BME280;75557;51.048;-0.424;2024-01-27T08:41:18;102905.91;;;15.11;16.04
85186;BME280;75557;51.048;-0.424;2024-01-27T08:43:42;102903.70;;;14.73;16.29
85186;BME280;75557;51.048;-0.424;2024-01-27T08:46:08;102899.30;;;14.83;16.37
85186;BME280;75557;51.048;-0.424;2024-01-27T08:48:34;102899.78;;;14.91;16.27
85186;BME280;75557;51.048;-0.424;2024-01-27T08:51:00;102894.28;;;15.39;16.19
85186;BME280;75557;51.048;-0.424;2024-01-27T08:53:25;102893.37;;;14.88;16.30
85186;BME280;75557;51.048;-0.424;2024-01-27T08:55:50;102888.56;;;14.73;16.53
85186;BME280;75557;51.048;-0.424;2024-01-27T08:58:16;102888.77;;;15.44;16.10
85186;BME280;75557;51.048;-0.424;2024-01-27T09:00:41;102891.95;;;15.35;16.14
85186;BME280;75557;51.048;-0.424;2024-01-27T09:03:06;102894.04;;;15.52;16.04
85186;BME280;75557;51.048;-0.424;2024-01-27T09:05:32;102894.75;;;15.68;16.06
85186;BME280;75557;51.048;-0.424;2024-01-27T09:07:58;102897.89;;;15.93;16.11
85186;BME280;75557;51.048;-0.424;2024-01-27T09:10:23;102902.15;;;15.76;16.00
85186;BME280;75557;51.048;-0.424;2024-01-27T09:12:49;102902.31;;;15.65;16.21
85186;BME280;75557;51.048;-0.424;2024-01-27T09:15:14;102911.46;;;15.79;16.06
85186;BME280;75557;51.048;-0.424;2024-01-27T09:17:40;102915.19;;;16.08;15.97
85186;BME280;75557;51.048;-0.424;2024-01-27T09:20:06;102913.58;;;15.40;16.19
85186;BME280;75557;51.048;-0.424;2024-01-27T09:22:32;102910.17;;;16.11;15.96
85186;BME280;75557;51.048;-0.424;2024-01-27T09:24:56;102912.69;;;15.54;16.07
85186;BME280;75557;51.048;-0.424;2024-01-27T09:27:22;102914.80;;;15.88;16.03
85186;BME280;75557;51.048;-0.424;2024-01-27T09:29:48;102919.67;;;15.87;16.28
85186;BME280;75557;51.048;-0.424;2024-01-27T09:32:13;102922.36;;;16.00;16.05
85186;BME280;75557;51.048;-0.424;2024-01-27T09:34:39;102924.98;;;15.37;16.24
85186;BME280;75557;51.048;-0.424;2024-01-27T09:37:04;102926.00;;;15.51;16.20
85186;BME280;75557;51.048;-0.424;2024-01-27T09:39:30;102926.60;;;15.75;16.16
85186;BME280;75557;51.048;-0.424;2024-01-27T09:41:56;102929.18;;;15.64;16.27
85186;BME280;75557;51.048;-0.424;2024-01-27T09:44:21;102931.93;;;15.54;16.26
85186;BME280;75557;51.048;-0.424;2024-01-27T09:46:47;102932.24;;;15.31;16.32
85186;BME280;75557;51.048;-0.424;2024-01-27T09:49:13;102927.49;;;16.14;16.07
85186;BME280;75557;51.048;-0.424;2024-01-27T09:51:38;102929.98;;;16.17;16.00
85186;BME280;75557;51.048;-0.424;2024-01-27T09:54:04;102935.69;;;15.92;16.09
85186;BME280;75557;51.048;-0.424;2024-01-27T09:56:29;102940.68;;;15.59;16.04
85186;BME280;75557;51.048;-0.424;2024-01-27T09:58:55;102945.89;;;16.23;16.04
85186;BME280;75557;51.048;-0.424;2024-01-27T10:01:21;102939.96;;;15.82;16.10
85186;BME280;75557;51.048;-0.424;2024-01-27T10:03:46;102941.20;;;15.80;15.99
85186;BME280;75557;51.048;-0.424;2024-01-27T10:06:11;102944.45;;;15.95;16.02
85186;BME280;75557;51.048;-0.424;2024-01-27T10:08:37;102948.88;;;16.66;15.59
85186;BME280;75557;51.048;-0.424;2024-01-27T10:11:06;102946.72;;;16.75;15.70
85186;BME280;75557;51.048;-0.424;2024-01-27T10:13:28;102946.61;;;15.87;15.96
85186;BME280;75557;51.048;-0.424;2024-01-27T10:16:01;102949.39;;;16.74;15.77
85186;BME280;75557;51.048;-0.424;2024-01-27T10:18:19;102949.75;;;15.84;15.92
85186;BME280;75557;51.048;-0.424;2024-01-27T10:20:45;102951.40;;;16.58;15.78
85186;BME280;75557;51.048;-0.424;2024-01-27T10:23:10;102952.64;;;16.00;15.92
85186;BME280;75557;51.048;-0.424;2024-01-27T10:25:37;102957.00;;;16.46;15.85
85186;BME280;75557;51.048;-0.424;2024-01-27T10:28:01;102956.86;;;16.38;15.91
85186;BME280;75557;51.048;-0.424;2024-01-27T10:30:26;102957.17;;;16.96;15.83
85186;BME280;75557;51.048;-0.424;2024-01-27T10:32:56;102957.87;;;16.40;15.91
85186;BME280;75557;51.048;-0.424;2024-01-27T10:35:18;102953.93;;;15.65;16.11
85186;BME280;75557;51.048;-0.424;2024-01-27T10:37:43;102947.95;;;16.03;16.11
85186;BME280;75557;51.048;-0.424;2024-01-27T10:40:09;102943.17;;;15.90;16.24
85186;BME280;75557;51.048;-0.424;2024-01-27T10:42:35;102942.82;;;15.66;16.25
85186;BME280;75557;51.048;-0.424;2024-01-27T10:45:01;102945.62;;;15.63;16.23
85186;BME280;75557;51.048;-0.424;2024-01-27T10:47:27;102942.55;;;15.94;16.21
85186;BME280;75557;51.048;-0.424;2024-01-27T10:49:52;102943.11;;;15.42;16.40
85186;BME280;75557;51.048;-0.424;2024-01-27T10:52:18;102947.26;;;16.12;16.25
85186;BME280;75557;51.048;-0.424;2024-01-27T10:54:43;102945.58;;;15.85;16.46
85186;BME280;75557;51.048;-0.424;2024-01-27T10:57:09;102945.47;;;15.82;16.45
85186;BME280;75557;51.048;-0.424;2024-01-27T10:59:35;102945.53;;;15.24;16.82
85186;BME280;75557;51.048;-0.424;2024-01-27T11:01:59;102942.29;;;15.39;16.90
85186;BME280;75557;51.048;-0.424;2024-01-27T11:04:25;102930.51;;;15.93;16.68
85186;BME280;75557;51.048;-0.424;2024-01-27T11:06:50;102926.82;;;15.27;16.99
85186;BME280;75557;51.048;-0.424;2024-01-27T11:09:17;102922.88;;;15.74;16.70
85186;BME280;75557;51.048;-0.424;2024-01-27T11:11:42;102918.44;;;15.71;16.80
85186;BME280;75557;51.048;-0.424;2024-01-27T11:14:06;102915.86;;;15.61;16.93
85186;BME280;75557;51.048;-0.424;2024-01-27T11:16:32;102909.93;;;15.68;17.01
85186;BME280;75557;51.048;-0.424;2024-01-27T11:18:57;102913.85;;;16.21;16.70
85186;BME280;75557;51.048;-0.424;2024-01-27T11:21:23;102914.76;;;15.96;16.74
85186;BME280;75557;51.048;-0.424;2024-01-27T11:23:48;102910.52;;;15.40;17.07
85186;BME280;75557;51.048;-0.424;2024-01-27T11:26:19;102905.61;;;15.54;17.12
85186;BME280;75557;51.048;-0.424;2024-01-27T11:28:39;102905.83;;;15.15;17.31
85186;BME280;75557;51.048;-0.424;2024-01-27T11:31:05;102898.70;;;15.37;17.14
85186;BME280;75557;51.048;-0.424;2024-01-27T11:33:31;102903.42;;;14.93;17.43
85186;BME280;75557;51.048;-0.424;2024-01-27T11:36:00;102899.90;;;15.11;17.35
85186;BME280;75557;51.048;-0.424;2024-01-27T11:38:22;102897.50;;;15.90;17.00
85186;BME280;75557;51.048;-0.424;2024-01-27T11:40:47;102891.01;;;15.41;17.33
85186;BME280;75557;51.048;-0.424;2024-01-27T11:43:13;102881.70;;;15.17;17.39
85186;BME280;75557;51.048;-0.424;2024-01-27T11:45:38;102880.55;;;16.19;16.99
85186;BME280;75557;51.048;-0.424;2024-01-27T11:48:04;102873.46;;;15.47;17.49
85186;BME280;75557;51.048;-0.424;2024-01-27T11:50:29;102871.65;;;15.88;17.26
85186;BME280;75557;51.048;-0.424;2024-01-27T11:52:56;102867.42;;;16.17;17.12
85186;BME280;75557;51.048;-0.424;2024-01-27T11:55:20;102863.80;;;16.25;17.17
85186;BME280;75557;51.048;-0.424;2024-01-27T11:57:46;102857.44;;;16.59;16.96
85186;BME280;75557;51.048;-0.424;2024-01-27T12:00:12;102855.09;;;16.28;17.71
85186;BME280;75557;51.048;-0.424;2024-01-27T12:02:37;102858.08;;;16.02;17.69
85186;BME280;75557;51.048;-0.424;2024-01-27T12:05:02;102852.25;;;16.51;17.40
85186;BME280;75557;51.048;-0.424;2024-01-27T12:07:28;102852.61;;;15.78;17.88
85186;BME280;75557;51.048;-0.424;2024-01-27T12:09:53;102843.00;;;15.58;18.37
85186;BME280;75557;51.048;-0.424;2024-01-27T12:12:20;102836.15;;;15.44;18.67
85186;BME280;75557;51.048;-0.424;2024-01-27T12:14:45;102834.35;;;15.48;18.89
85186;BME280;75557;51.048;-0.424;2024-01-27T12:17:11;102827.20;;;15.79;19.08
85186;BME280;75557;51.048;-0.424;2024-01-27T12:19:35;102828.90;;;15.37;19.17
85186;BME280;75557;51.048;-0.424;2024-01-27T12:22:01;102835.22;;;15.17;19.24
85186;BME280;75557;51.048;-0.424;2024-01-27T12:24:25;102840.59;;;15.34;19.22
85186;BME280;75557;51.048;-0.424;2024-01-27T12:26:51;102842.99;;;15.57;19.11
85186;BME280;75557;51.048;-0.424;2024-01-27T12:29:19;102840.70;;;15.48;19.45
85186;BME280;75557;51.048;-0.424;2024-01-27T12:31:43;102835.40;;;15.51;19.12